Terminal Aerodrome Forecast
Issued by NWS

Home | Current Version | Previous Version | Text Only | Print | Product List | Glossary On
Versions: 1 2 3 4 5 6 7 8 9 10 11 12 13 14 15 16 17 18 19 20
000
FTUS41 KGYX 010520
TAFMHT
TAF
KMHT 010520Z 0106/0206 13007KT P6SM OVC045
      TEMPO 0106/0110 -SHRA BKN025 OVC035
     FM011000 12007KT P6SM BKN015 OVC025
     FM011600 10005KT 5SM -DZ BR BKN007 OVC012=

USA.gov is the U.S. government's official web portal to all federal, state and local government web resources and services.